Time,TemperatureF,DewpointF,PressureIn,WindDirection,WindDirectionDegrees,WindSpeedMPH,WindSpeedGustMPH,Humidity,HourlyPrecipIn,Conditions,Clouds,dailyrainin,SolarRadiationWatts/m^2,SoftwareType,DateUTC
2013-01-03 00:02:00,51.0,16.0,-100.00,North,3,8.0,12.0,24,0.00,,,0.00,1.000000,,2013-01-03 07:02:00,
2013-01-03 00:12:00,51.0,16.0,-100.00,North,3,8.0,12.0,24,0.00,,,0.00,1.000000,,2013-01-03 07:12:00,
2013-01-03 00:33:00,46.0,18.0,-100.00,West,272,3.0,12.0,32,0.00,,,0.00,1.000000,,2013-01-03 07:33:00,
2013-01-03 00:43:00,46.0,18.0,-100.00,West,272,3.0,12.0,32,0.00,,,0.00,1.000000,,2013-01-03 07:43:00,
2013-01-03 00:53:00,46.0,18.0,-100.00,West,272,3.0,12.0,32,0.00,,,0.00,1.000000,,2013-01-03 07:53:00,
2013-01-03 01:02:00,46.0,18.0,-100.00,West,272,3.0,12.0,32,0.00,,,0.00,1.000000,,2013-01-03 08:02:00,
2013-01-03 01:11:00,46.0,18.0,-100.00,West,272,3.0,12.0,32,0.00,,,0.00,1.000000,,2013-01-03 08:11:00,
2013-01-03 01:43:00,42.0,18.0,-100.00,West,271,0.0,4.0,38,0.00,,,-99.99,1.000000,,2013-01-03 08:43:00,
2013-01-03 01:53:00,42.0,18.0,-100.00,West,271,0.0,4.0,38,0.00,,,-99.99,1.000000,,2013-01-03 08:53:00,
2013-01-03 02:02:00,42.0,18.0,-100.00,West,271,0.0,4.0,38,0.00,,,-99.99,1.000000,,2013-01-03 09:02:00,
2013-01-03 02:11:00,42.0,18.0,-100.00,West,271,0.0,4.0,38,0.00,,,-99.99,1.000000,,2013-01-03 09:11:00,
2013-01-03 02:34:00,42.0,18.0,-100.00,WNW,283,0.0,5.0,37,0.00,,,0.00,1.000000,,2013-01-03 09:34:00,
2013-01-03 02:43:00,42.0,18.0,-100.00,WNW,283,0.0,5.0,37,0.00,,,0.00,1.000000,,2013-01-03 09:43:00,
2013-01-03 02:53:00,42.0,18.0,-100.00,WNW,283,0.0,5.0,37,0.00,,,0.00,1.000000,,2013-01-03 09:53:00,
2013-01-03 03:02:00,42.0,18.0,-100.00,WNW,283,0.0,5.0,37,0.00,,,0.00,1.000000,,2013-01-03 10:02:00,
2013-01-03 03:11:00,42.0,18.0,-100.00,WNW,283,0.0,5.0,37,0.00,,,0.00,1.000000,,2013-01-03 10:11:00,
2013-01-03 03:33:00,46.0,16.0,-100.00,NNW,345,5.0,7.0,30,0.00,,,0.00,1.000000,,2013-01-03 10:33:00,
2013-01-03 03:43:00,46.0,16.0,-100.00,NNW,345,5.0,7.0,30,0.00,,,0.00,1.000000,,2013-01-03 10:43:00,
2013-01-03 03:52:00,46.0,16.0,-100.00,NNW,345,5.0,7.0,30,0.00,,,0.00,1.000000,,2013-01-03 10:52:00,
2013-01-03 04:02:00,46.0,16.0,-100.00,NNW,345,5.0,7.0,30,0.00,,,0.00,1.000000,,2013-01-03 11:02:00,
2013-01-03 04:11:00,46.0,16.0,-100.00,NNW,345,5.0,7.0,30,0.00,,,0.00,1.000000,,2013-01-03 11:11:00,
2013-01-03 04:33:00,49.0,14.0,-100.00,North,9,7.0,12.0,24,0.00,,,0.00,1.000000,,2013-01-03 11:33:00,
2013-01-03 04:43:00,49.0,14.0,-100.00,North,9,7.0,12.0,24,0.00,,,0.00,1.000000,,2013-01-03 11:43:00,
2013-01-03 04:53:00,49.0,14.0,-100.00,North,9,7.0,12.0,24,0.00,,,0.00,1.000000,,2013-01-03 11:53:00,
2013-01-03 05:02:00,49.0,14.0,-100.00,North,9,7.0,12.0,24,0.00,,,0.00,1.000000,,2013-01-03 12:02:00,
2013-01-03 05:12:00,49.0,14.0,-100.00,North,9,7.0,12.0,24,0.00,,,0.00,1.000000,,2013-01-03 12:12:00,
2013-01-03 05:43:00,49.0,15.0,-100.00,North,3,8.0,12.0,25,0.00,,,-99.99,1.000000,,2013-01-03 12:43:00,
2013-01-03 05:53:00,49.0,15.0,-100.00,North,3,8.0,12.0,25,0.00,,,-99.99,1.000000,,2013-01-03 12:53:00,
2013-01-03 06:02:00,49.0,15.0,-100.00,North,3,8.0,12.0,25,0.00,,,-99.99,1.000000,,2013-01-03 13:02:00,
2013-01-03 06:12:00,49.0,15.0,-100.00,North,3,8.0,12.0,25,0.00,,,-99.99,1.000000,,2013-01-03 13:12:00,
2013-01-03 06:42:00,50.0,15.0,-100.00,NNE,14,11.0,18.0,24,0.00,,,0.00,1.000000,,2013-01-03 13:42:00,
2013-01-03 06:53:00,50.0,15.0,-100.00,NNE,14,11.0,18.0,24,0.00,,,0.00,1.000000,,2013-01-03 13:53:00,
2013-01-03 07:02:00,50.0,15.0,-100.00,NNE,14,11.0,18.0,24,0.00,,,0.00,1.000000,,2013-01-03 14:02:00,
2013-01-03 07:12:00,50.0,15.0,-100.00,NNE,14,11.0,18.0,24,0.00,,,0.00,1.000000,,2013-01-03 14:12:00,
2013-01-03 07:33:00,50.0,16.0,-100.00,NNE,17,13.0,22.0,25,0.00,,,-99.99,1.000000,,2013-01-03 14:33:00,
2013-01-03 07:43:00,50.0,16.0,-100.00,NNE,17,13.0,22.0,25,0.00,,,-99.99,1.000000,,2013-01-03 14:43:00,
2013-01-03 07:53:00,50.0,16.0,-100.00,NNE,17,13.0,22.0,25,0.00,,,-99.99,1.000000,,2013-01-03 14:53:00,
2013-01-03 08:02:00,50.0,16.0,-100.00,NNE,17,13.0,22.0,25,0.00,,,-99.99,1.000000,,2013-01-03 15:02:00,
2013-01-03 08:12:00,50.0,16.0,-100.00,NNE,17,13.0,22.0,25,0.00,,,-99.99,1.000000,,2013-01-03 15:12:00,
2013-01-03 08:43:00,50.0,15.0,-100.00,NNE,22,9.0,24.0,24,0.00,,,0.00,17.000000,,2013-01-03 15:43:00,
2013-01-03 08:53:00,50.0,15.0,-100.00,NNE,22,9.0,24.0,24,0.00,,,0.00,17.000000,,2013-01-03 15:53:00,
2013-01-03 09:03:00,50.0,15.0,-100.00,NNE,22,9.0,24.0,24,0.00,,,0.00,17.000000,,2013-01-03 16:03:00,
2013-01-03 09:12:00,50.0,15.0,-100.00,NNE,22,9.0,24.0,24,0.00,,,0.00,17.000000,,2013-01-03 16:12:00,
2013-01-03 09:43:00,52.0,16.0,-100.00,North,2,10.0,21.0,24,0.00,,,0.00,177.000000,,2013-01-03 16:43:00,
2013-01-03 09:53:00,52.0,16.0,-100.00,North,2,10.0,21.0,24,0.00,,,0.00,177.000000,,2013-01-03 16:53:00,
2013-01-03 10:02:00,52.0,16.0,-100.00,North,2,10.0,21.0,24,0.00,,,0.00,177.000000,,2013-01-03 17:02:00,
2013-01-03 10:12:00,52.0,16.0,-100.00,North,2,10.0,21.0,24,0.00,,,0.00,177.000000,,2013-01-03 17:12:00,
2013-01-03 10:43:00,56.0,17.0,-100.00,North,358,8.0,18.0,21,0.00,,,0.00,363.000000,,2013-01-03 17:43:00,
2013-01-03 10:53:00,56.0,17.0,-100.00,North,358,8.0,18.0,21,0.00,,,0.00,363.000000,,2013-01-03 17:53:00,
2013-01-03 11:03:00,56.0,17.0,-100.00,North,358,8.0,18.0,21,0.00,,,0.00,363.000000,,2013-01-03 18:03:00,
2013-01-03 11:12:00,56.0,17.0,-100.00,North,358,8.0,18.0,21,0.00,,,0.00,363.000000,,2013-01-03 18:12:00,
2013-01-03 11:33:00,58.0,15.0,-100.00,North,5,13.0,22.0,18,0.00,,,0.00,517.000000,,2013-01-03 18:33:00,
2013-01-03 11:43:00,58.0,15.0,-100.00,North,5,13.0,22.0,18,0.00,,,0.00,517.000000,,2013-01-03 18:43:00,
2013-01-03 11:53:00,58.0,15.0,-100.00,North,5,13.0,22.0,18,0.00,,,0.00,517.000000,,2013-01-03 18:53:00,
2013-01-03 12:03:00,58.0,15.0,-100.00,North,5,13.0,22.0,18,0.00,,,0.00,517.000000,,2013-01-03 19:03:00,
2013-01-03 12:12:00,58.0,15.0,-100.00,North,5,13.0,22.0,18,0.00,,,0.00,517.000000,,2013-01-03 19:12:00,
2013-01-03 12:56:00,59.0,14.0,-100.00,North,8,15.0,22.0,17,0.00,,,0.00,617.000000,,2013-01-03 19:56:00,
2013-01-03 13:02:00,59.0,14.0,-100.00,North,8,15.0,22.0,17,0.00,,,0.00,617.000000,,2013-01-03 20:02:00,
2013-01-03 13:12:00,59.0,14.0,-100.00,North,8,15.0,22.0,17,0.00,,,0.00,617.000000,,2013-01-03 20:12:00,
2013-01-03 13:33:00,61.0,13.0,-100.00,North,9,15.0,22.0,15,0.00,,,0.00,650.000000,,2013-01-03 20:33:00,
2013-01-03 13:43:00,61.0,13.0,-100.00,North,9,15.0,22.0,15,0.00,,,0.00,650.000000,,2013-01-03 20:43:00,
2013-01-03 13:53:00,61.0,13.0,-100.00,North,9,15.0,22.0,15,0.00,,,0.00,650.000000,,2013-01-03 20:53:00,
2013-01-03 14:02:00,61.0,13.0,-100.00,North,9,15.0,22.0,15,0.00,,,0.00,650.000000,,2013-01-03 21:02:00,
2013-01-03 14:12:00,61.0,13.0,-100.00,North,9,15.0,22.0,15,0.00,,,0.00,650.000000,,2013-01-03 21:12:00,
2013-01-03 14:50:00,63.0,11.0,-100.00,NNE,14,13.0,24.0,13,0.00,,,0.00,617.000000,,2013-01-03 21:50:00,
2013-01-03 15:02:00,63.0,11.0,-100.00,NNE,14,13.0,24.0,13,0.00,,,0.00,617.000000,,2013-01-03 22:02:00,
2013-01-03 15:12:00,63.0,11.0,-100.00,NNE,14,13.0,24.0,13,0.00,,,0.00,617.000000,,2013-01-03 22:12:00,
2013-01-03 15:43:00,63.0,13.0,-100.00,North,358,11.0,22.0,14,0.00,,,0.00,517.000000,,2013-01-03 22:43:00,
2013-01-03 15:52:00,63.0,13.0,-100.00,North,358,11.0,22.0,14,0.00,,,0.00,517.000000,,2013-01-03 22:52:00,
2013-01-03 16:02:00,63.0,13.0,-100.00,North,358,11.0,22.0,14,0.00,,,0.00,517.000000,,2013-01-03 23:02:00,
2013-01-03 16:12:00,63.0,13.0,-100.00,North,358,11.0,22.0,14,0.00,,,0.00,517.000000,,2013-01-03 23:12:00,
2013-01-03 16:43:00,63.0,10.0,-100.00,North,359,13.0,25.0,12,0.00,,,0.00,342.000000,,2013-01-03 23:43:00,
2013-01-03 16:53:00,63.0,10.0,-100.00,North,359,13.0,25.0,12,0.00,,,0.00,342.000000,,2013-01-03 23:53:00,
2013-01-03 17:03:00,63.0,10.0,-100.00,North,359,13.0,25.0,12,0.00,,,0.00,342.000000,,2013-01-04 00:03:00,
2013-01-03 17:12:00,63.0,10.0,-100.00,North,359,13.0,25.0,12,0.00,,,0.00,342.000000,,2013-01-04 00:12:00,
2013-01-03 17:33:00,62.0,11.0,-100.00,North,2,10.0,18.0,13,0.00,,,0.00,127.000000,,2013-01-04 00:33:00,
2013-01-03 17:42:00,62.0,11.0,-100.00,North,2,10.0,18.0,13,0.00,,,0.00,127.000000,,2013-01-04 00:42:00,
2013-01-03 17:52:00,62.0,11.0,-100.00,North,2,10.0,18.0,13,0.00,,,0.00,127.000000,,2013-01-04 00:52:00,
2013-01-03 18:02:00,62.0,11.0,-100.00,North,2,10.0,18.0,13,0.00,,,0.00,127.000000,,2013-01-04 01:02:00,
2013-01-03 18:12:00,62.0,11.0,-100.00,North,2,10.0,18.0,13,0.00,,,0.00,127.000000,,2013-01-04 01:12:00,
2013-01-03 18:42:00,58.0,9.0,-100.00,North,349,8.0,17.0,14,0.00,,,0.00,17.000000,,2013-01-04 01:42:00,
2013-01-03 18:52:00,58.0,9.0,-100.00,North,349,8.0,17.0,14,0.00,,,0.00,17.000000,,2013-01-04 01:52:00,
2013-01-03 19:02:00,58.0,9.0,-100.00,North,349,8.0,17.0,14,0.00,,,0.00,17.000000,,2013-01-04 02:02:00,
2013-01-03 19:12:00,58.0,9.0,-100.00,North,349,8.0,17.0,14,0.00,,,0.00,17.000000,,2013-01-04 02:12:00,
2013-01-03 19:33:00,55.0,11.0,-100.00,North,359,7.0,11.0,17,0.00,,,0.00,1.000000,,2013-01-04 02:33:00,
2013-01-03 19:42:00,55.0,11.0,-100.00,North,359,7.0,11.0,17,0.00,,,0.00,1.000000,,2013-01-04 02:42:00,
2013-01-03 19:53:00,55.0,11.0,-100.00,North,359,7.0,11.0,17,0.00,,,0.00,1.000000,,2013-01-04 02:53:00,
2013-01-03 20:02:00,55.0,11.0,-100.00,North,359,7.0,11.0,17,0.00,,,0.00,1.000000,,2013-01-04 03:02:00,
2013-01-03 20:12:00,55.0,11.0,-100.00,North,359,7.0,11.0,17,0.00,,,0.00,1.000000,,2013-01-04 03:12:00,
2013-01-03 20:43:00,54.0,10.0,-100.00,North,350,8.0,11.0,17,0.00,,,0.00,1.000000,,2013-01-04 03:43:00,
2013-01-03 20:53:00,54.0,10.0,-100.00,North,350,8.0,11.0,17,0.00,,,0.00,1.000000,,2013-01-04 03:53:00,
2013-01-03 21:02:00,54.0,10.0,-100.00,North,350,8.0,11.0,17,0.00,,,0.00,1.000000,,2013-01-04 04:02:00,
2013-01-03 21:12:00,54.0,10.0,-100.00,North,350,8.0,11.0,17,0.00,,,0.00,1.000000,,2013-01-04 04:12:00,
2013-01-03 21:32:00,54.0,9.0,-100.00,North,10,5.0,11.0,16,0.00,,,0.00,1.000000,,2013-01-04 04:32:00,
2013-01-03 21:42:00,54.0,9.0,-100.00,North,10,5.0,11.0,16,0.00,,,0.00,1.000000,,2013-01-04 04:42:00,
2013-01-03 21:52:00,54.0,9.0,-100.00,North,10,5.0,11.0,16,0.00,,,0.00,1.000000,,2013-01-04 04:52:00,
2013-01-03 22:03:00,54.0,9.0,-100.00,North,10,5.0,11.0,16,0.00,,,0.00,1.000000,,2013-01-04 05:03:00,
2013-01-03 22:12:00,54.0,9.0,-100.00,North,10,5.0,11.0,16,0.00,,,0.00,1.000000,,2013-01-04 05:12:00,
2013-01-03 22:33:00,52.0,10.0,-100.00,North,7,6.0,7.0,18,0.00,,,0.00,1.000000,,2013-01-04 05:33:00,
2013-01-03 22:42:00,52.0,10.0,-100.00,North,7,6.0,7.0,18,0.00,,,0.00,1.000000,,2013-01-04 05:42:00,
2013-01-03 22:52:00,52.0,10.0,-100.00,North,7,6.0,7.0,18,0.00,,,0.00,1.000000,,2013-01-04 05:52:00,
2013-01-03 23:02:00,52.0,10.0,-100.00,North,7,6.0,7.0,18,0.00,,,0.00,1.000000,,2013-01-04 06:02:00,
2013-01-03 23:12:00,52.0,10.0,-100.00,North,7,6.0,7.0,18,0.00,,,0.00,1.000000,,2013-01-04 06:12:00,
2013-01-03 23:33:00,50.0,9.0,-100.00,North,7,6.0,7.0,19,0.00,,,0.00,1.000000,,2013-01-04 06:33:00,
2013-01-03 23:42:00,50.0,9.0,-100.00,North,7,6.0,7.0,19,0.00,,,0.00,1.000000,,2013-01-04 06:42:00,
2013-01-03 23:52:00,50.0,9.0,-100.00,North,7,6.0,7.0,19,0.00,,,0.00,1.000000,,2013-01-04 06:52:00,